Joseph Nicolas

Chefscout - Dijon
5 Dez 2027
Sonntag
Verarbeitung

Persönlichkeit

Anpassungsfähigkeit (19) Ehrgeiz (10) Kontroverse (19) Loyalität (20) Druck (7) Professionalität (1) Fairness (19) Temperament (2)

Profil

Trainerstil Demokratisch
Lizenz Kontinentale Pro
Entschlossenheit 11
Menschenführung 4
Motivation 5
Disziplin 4
Arbeitszufriedenheit
100%
Ermüdung
0%
Rolle Chefscout
Gehalt 68.2K p/W
Vertrag 14.03.2028

Leistung

Verhalten Gut
Trainingseffektivität
41%
Spielerentwicklung
20%
Verletzungsprävention
45%
Taktische Umsetzung
55%

Letzte Ereignisse

Nahm an einer Scouting-Besprechung teil jetzt
Empfahl ein Transferziel jetzt
Empfahl ein Transferziel jetzt
Empfahl ein Transferziel jetzt
Empfahl ein Transferziel jetzt
Empfahl ein Transferziel jetzt
Spieler begutachtet 7T her
Spieler begutachtet 7T her

Aktuell beobachtet

210
Spieler Verein Status Fähigkeit Vertrauen Beobachtet Zuletzt beobachtet Letzte Stimme
Ollie Scarles West Ham United Aktiv 134 / 144 40% 3 04.12.2027 -
Josh Nichols Oldham Athletic Aktiv 121 / 130 40% 1 04.12.2027 -
Karim Coulibaly RC Strasbourg Aktiv 128 / 125 40% 1 04.12.2027 -
Hosea Michael Remo Stars Aktiv 93 / 91 40% 4 03.12.2027 -
Noam Marchal Lokeren Aktiv 83 / 96 40% 2 03.12.2027 -
Mohammed El Âdfaoui KAA Gent Aktiv 115 / 127 40% 1 03.12.2027 -
Axel Tape Bayer Leverkusen Aktiv 135 / 140 40% 6 27.11.2027 -
Andrija Bulatović US Creteil Aktiv 124 / 134 40% 3 27.11.2027 -
Ignacio Fernández Boston River Aktiv 95 / 114 40% 1 27.11.2027 -
Amine Boukamir Charleroi Aktiv 100 / 111 40% 2 26.11.2027 -
Juan Manuel Villalba Tigre Aktiv 122 / 121 40% 6 26.11.2027 -
Uche Jaguar Kwara United Aktiv 85 / 95 40% 2 26.11.2027 -
Pape Diong Westerlo Aktiv 122 / 123 40% 6 24.11.2027 -
Ronan Kpakio Grimsby Town Aktiv 126 / 118 40% 2 24.11.2027 -
Juan Camilo Córdoba Deportivo Pereira Aktiv 88 / 86 40% 1 21.11.2027 -
Khalis Merah Olympique Lyonnais Aktiv 131 / 141 40% 3 20.11.2027 -
Aymen Sadi Admira Wacker Aktiv 84 / 90 40% 2 20.11.2027 -
Mikkel Hope Haugesund Aktiv 105 / 95 40% 5 18.11.2027 -
Gideon Manaseh Ikorodu City Aktiv 85 / 106 40% 3 16.11.2027 -
Oscar Steinke Brånby Hammarby Aktiv 110 / 97 40% 1 16.11.2027 -
Mateo Ferrari Atlanta Aktiv 84 / 99 40% 1 16.11.2027 -
Paolo Limon Zulte Waregem Aktiv 88 / 94 40% 3 15.11.2027 -
Kaick New York Red Bulls Aktiv 95 / 110 40% 1 15.11.2027 -
Guy Noël Zohouri Le Havre AC Aktiv 124 / 138 40% 3 14.11.2027 -
Godwin Oham Warri Wolves Aktiv 81 / 83 40% 2 14.11.2027 -
David Damboama El-Kanemi Warriors Aktiv 80 / 91 40% 1 14.11.2027 -
Sakhalou Niakaté Haladas Aktiv 85 / 73 40% 2 12.11.2027 -
Axel Doku KV Oostende Aktiv 130 / 137 40% 1 12.11.2027 -
Luis Otávio FC Dallas Aktiv 101 / 119 40% 5 06.11.2027 -
Mathys Angély VfL Wolfsburg Aktiv 119 / 128 40% 2 06.11.2027 -
Ladji Camara AIK Aktiv 101 / 114 40% 2 01.11.2027 -
Olaniyi Saheed Kwara United Aktiv 93 / 103 40% 2 31.10.2027 -
Nikolay Sotnikov Arsenal Dzerzhinsk Aktiv 76 / 102 40% 1 29.10.2027 -
Mohammed Habib Sarwari Kariobangi Sharks Aktiv 78 / 65 40% 1 23.10.2027 -
Andres Rondon Llaneros Aktiv 80 / 100 40% 2 21.10.2027 -
Fodé Sylla Sion Aktiv 114 / 128 40% 1 21.10.2027 -
Joel Ezra Enyimba Aktiv 88 / 106 40% 2 20.10.2027 -
Felipe Obradovich Lanús Aktiv 111 / 109 40% 1 20.10.2027 -
Onyeuche Ujunwa Ikorodu City Aktiv 88 / 83 40% 1 15.10.2027 -
Tyson Pearce St. Louis CITY SC Aktiv 93 / 84 40% 1 15.10.2027 -
Chibueze Oputa Rangers International Aktiv 90 / 93 40% 2 11.10.2027 -
Adrian Skogmar Malmo FF Aktiv 115 / 129 40% 1 10.10.2027 -
David Asayure Lokomotivi Aktiv 77 / 92 40% 1 09.10.2027 -
Lilian Deville Blackpool Aktiv 85 / 86 40% 1 09.10.2027 -
Jackson Imbiakha Muranga Seal Aktiv 78 / 94 40% 1 08.10.2027 -
Alexis Ríos Leones Aktiv 95 / 91 40% 1 08.10.2027 -
Onuorah Onyedika Kun Khalifat Aktiv 81 / 90 40% 2 06.10.2027 -
Sebastián Ramírez America de Cali Aktiv 107 / 118 40% 1 06.10.2027 -
Teo Rodríguez Pagano San Lorenzo Aktiv 116 / 119 40% 1 05.10.2027 -
Lucas Rosier Stade Rennais Aktiv 99 / 115 72% 1 16.08.2027 Befürworten
Noah Nartey Olympique Lyonnais Aktiv 129 / 132 40% 1 19.07.2027 -
Joel McGregor Swindon Town Aktiv 92 / 109 40% 1 19.07.2027 -
Caleb Yirenkyi Coventry City Aktiv 135 / 147 40% 1 19.07.2027 -
Kyllian Antonio RC Lens Verloren 108 / 123 72% 1 28.06.2027 -
Ryotaro Ito Sint-Truiden Aktiv 133 / 136 40% 1 28.06.2027 -
Jean-Luc Dompé Konyaspor Aktiv 127 / 139 40% 1 28.06.2027 -
Habib Diarra Sunderland Aktiv 141 / 141 40% 8 14.06.2027 -
Beñat Prados Málaga Aktiv 142 / 137 40% 1 14.06.2027 -
Mao Hosoya Anderlecht Verhandlung 134 / 135 67% 1 01.06.2027 Befürworten
Roberto López Leganés Aktiv 130 / 138 40% 1 31.05.2027 -
Mattéo Tramoni Pisa Aktiv 134 / 137 40% 1 31.05.2027 -
Mohammed El Hankouri Standard Liege Aktiv 127 / 134 40% 6 30.05.2027 -
Ethan Galbraith Swansea City Aktiv 134 / 141 40% 4 30.05.2027 -
Imrân Louza Watford Aktiv 129 / 133 40% 1 30.05.2027 -
Kenny Tete Fulham Aktiv 148 / 136 40% 2 29.05.2027 -
Aidan Morris Middlesbrough Aktiv 131 / 139 40% 1 29.05.2027 -
Harrison Burrows Sheffield United Aktiv 129 / 119 40% 2 28.05.2027 -
Marvin Park Las Palmas Aktiv 131 / 128 40% 2 28.05.2027 -
Issa Kaboré Wrexham Aktiv 136 / 134 40% 2 26.05.2027 -
Brooke Norton-Cuffy Hull City Aktiv 137 / 138 40% 1 26.05.2027 -
Enric Franquesa Leganés Aktiv 130 / 137 40% 1 25.05.2027 -
Bobby Thomas Coventry City Aktiv 139 / 126 40% 1 25.05.2027 -
Álex Lebarbier Real Sociedad Aktiv 101 / 109 40% 2 24.05.2027 -
Ramón Terrats Getafe Aktiv 139 / 143 40% 2 24.05.2027 -
Alejandro Catena Osasuna Aktiv 136 / 142 40% 1 24.05.2027 -
Jevan Beattie Harrogate Town Aktiv 91 / 97 40% 3 23.05.2027 -
Mateus Mané Liverpool Aktiv 133 / 143 40% 5 23.05.2027 -
Callum Brittain Middlesbrough Aktiv 127 / 122 40% 2 23.05.2027 -
Nobel Mendy Hull City Aktiv 132 / 145 40% 3 23.05.2027 -
Dani Ángel Peterborough United Aktiv 95 / 91 40% 2 23.05.2027 -
Harry Clarke Preston Aktiv 133 / 130 40% 1 23.05.2027 -
Florentino Luís Ipswich Town Aktiv 140 / 137 40% 2 21.05.2027 -
Jimmy Dunne Queens Park Rangers Aktiv 130 / 126 40% 3 20.05.2027 -
Tim Iroegbunam Hull City Aktiv 140 / 147 40% 2 20.05.2027 -
Maël de Gevigney Colchester United Aktiv 102 / 101 40% 1 19.05.2027 -
Rubén Duarte Granada Aktiv 134 / 129 40% 2 17.05.2027 -
Ethan Pye Stockport County Aktiv 115 / 125 40% 2 17.05.2027 -
Aarón Racing Santander Aktiv 131 / 135 40% 1 17.05.2027 -
Dara O'Shea Ipswich Town Aktiv 140 / 136 40% 4 16.05.2027 -
Jacob Greaves Ipswich Town Aktiv 141 / 125 40% 6 16.05.2027 -
Tristan Crama Millwall Aktiv 129 / 133 40% 10 15.05.2027 -
Iwan Morgan Grimsby Town Aktiv 109 / 120 40% 3 15.05.2027 -
Youssouf Haidara BA All Stars Aktiv 100 / 106 40% 1 15.05.2027 -
Serge Daura Stade Renard de Melong Aktiv 94 / 95 40% 2 14.05.2027 -
Michael Noumon Heart of Lions Aktiv 82 / 84 40% 2 14.05.2027 -
Shandre Campbell KV Kortrijk Aktiv 108 / 113 40% 3 13.05.2027 -
Gabriel Dufour Chamois Niortais Aktiv 115 / 123 40% 1 13.05.2027 -
Saša Lukić Ipswich Town Aktiv 147 / 147 40% 4 12.05.2027 -
Bosun Lawal Stoke City Aktiv 122 / 132 40% 1 10.05.2027 -
Matisse Samoise KAA Gent Aktiv 127 / 128 40% 5 09.05.2027 -
Javi Galán Celta Aktiv 146 / 137 40% 1 09.05.2027 -
Maxime Lopez Paris FC Aktiv 132 / 148 40% 3 07.05.2027 -
Adama Goïta Remo Stars Aktiv 102 / 101 40% 4 07.05.2027 -
Oumar Camara Vitoria Guimaraes Aktiv 121 / 122 40% 1 07.05.2027 -
Adrian Van Rumst Chertanovo Aktiv 73 / 80 40% 1 07.05.2027 -
Mamadou Doumbia Watford Aktiv 119 / 119 40% 2 06.05.2027 -
Cameron Gardner Grimsby Town Aktiv 82 / 95 40% 1 06.05.2027 -
Nacer Mertens KV Oostende Aktiv 122 / 135 40% 4 04.05.2027 -
Sindre Walle Egeli Ipswich Town Aktiv 126 / 145 40% 2 02.05.2027 -
Hugo Magnetti Stade Brestois Aktiv 138 / 141 40% 1 29.04.2027 -
Moussa Ballo Afrique Foot Elite Aktiv 101 / 109 40% 3 27.04.2027 -
Clément Akpa AJ Auxerre Aktiv 124 / 141 40% 3 27.04.2027 -
Tim Jabol-Folcarelli Basaksehir Aktiv 125 / 121 40% 1 27.04.2027 -
Kevin Amaro Racing Genk Aktiv 131 / 118 40% 3 25.04.2027 -
Maxime Leverbe Vicenza Aktiv 112 / 118 40% 2 25.04.2027 -
George Brown Sheffield Wednesday Verloren 96 / 104 40% 4 25.04.2027 -
Japhet Tanganga Sheffield United Aktiv 136 / 122 40% 1 25.04.2027 -
Nolhan Assafoua MC El Bayadh Aktiv 72 / 63 40% 2 24.04.2027 -
Nime Sacko Sampdoria Aktiv 83 / 80 40% 1 24.04.2027 -
Lorenzo De Leo Renate Aktiv 94 / 104 40% 2 23.04.2027 -
Gilles Dewaele KV Kortrijk Aktiv 120 / 115 40% 2 19.04.2027 -
Dramane Kamagaté USM Alger Aktiv 98 / 100 40% 2 18.04.2027 -
Daniel Gnahoua CS Constantine Aktiv 104 / 100 40% 2 17.04.2027 -
Lilian Raolisoa Angers SCO Aktiv 123 / 133 40% 1 13.04.2027 -
Víctor Guzmán Sporting CP Aktiv 99 / 102 40% 2 12.04.2027 -
Luís Esteves Atlas Aktiv 126 / 128 40% 2 10.04.2027 -
Abdoulaye Sissako Sint-Truiden Aktiv 112 / 118 40% 5 09.04.2027 -
Mohamed Bamba Virtus Entella Aktiv 100 / 105 40% 2 09.04.2027 -
Rodrigo Pinheiro Famalicao Aktiv 134 / 128 40% 1 09.04.2027 -
Wa All Stars Aktiv 115 / 126 40% 2 08.04.2027 -
Edison Gruezo Queretaro Aktiv 107 / 112 40% 1 08.04.2027 -
Rassoul Ndiaye Le Havre AC Aktiv 126 / 138 40% 1 08.04.2027 -
Arno Verschueren Waasland-Beveren Aktiv 123 / 131 40% 6 07.04.2027 -
Montassar Talbi FC Lorient Aktiv 133 / 145 40% 2 04.04.2027 -
Jessy Deminguet FC Metz Aktiv 123 / 125 40% 1 04.04.2027 -
Adnan Tielemans Mouscron Aktiv 130 / 117 40% 2 03.04.2027 -
Louis Mouton Angers SCO Aktiv 131 / 129 40% 1 03.04.2027 -
Shunsuke Saito Westerlo Aktiv 104 / 99 40% 1 02.04.2027 -
David Fernández Veracruz Aktiv 107 / 126 40% 1 02.04.2027 -
Roberto Vazquez Veracruz Aktiv 139 / 113 40% 2 31.03.2027 -
Axel Tuanzebe AJ Auxerre Aktiv 131 / 127 40% 2 30.03.2027 -
Ibrahim Karamoko Standard Liege Aktiv 119 / 126 40% 3 29.03.2027 -
Fletcher Holman Swindon Town Aktiv 81 / 81 40% 1 27.03.2027 -
Dimitri Lavalée Standard Liege Aktiv 126 / 123 40% 1 27.03.2027 -
Dylan Ourega Westerlo Aktiv 108 / 109 40% 3 26.03.2027 -
Michel Ndary Adopo Cagliari Aktiv 140 / 126 40% 2 24.03.2027 -
Léandre Kuavita Waasland-Beveren Aktiv 112 / 121 40% 3 23.03.2027 -
Brendan Chardonnet Stade Brestois Aktiv 130 / 138 40% 2 22.03.2027 -
José Marsà KV Mechelen Aktiv 128 / 119 40% 1 22.03.2027 -
Bradley Locko Stade Brestois Aktiv 141 / 132 40% 1 21.03.2027 -
Cristian Cásseres Toulouse FC Aktiv 135 / 123 40% 1 21.03.2027 -
Jason Denayer KAA Gent Aktiv 120 / 126 40% 2 20.03.2027 -
Madaoua Tchiva CotonTchad Aktiv 81 / 88 40% 1 20.03.2027 -
Yann Gboua Standard Liege Aktiv 81 / 92 40% 1 20.03.2027 -
Tommy St. Jago KV Mechelen Aktiv 120 / 119 40% 1 16.03.2027 -
Yaimar Medina Racing Genk Aktiv 128 / 118 40% 2 13.03.2027 -
Matthew Targett Hull City Aktiv 128 / 128 40% 1 12.03.2027 -
Otávio Paris FC Aktiv 128 / 142 40% 1 09.03.2027 -
Cheick Doucouré Crystal Palace Aktiv 140 / 149 40% 1 08.03.2027 -
Colbert Binni Gazelle Garoua Aktiv 61 / 71 40% 1 08.03.2027 -
Sidiki Chérif Coventry City Aktiv 120 / 128 40% 1 08.03.2027 -
Alexandr Komissarov Torpedo Vladimir Aktiv 66 / 59 40% 1 07.03.2027 -
Kita Foullah Edifice Aktiv 71 / 81 40% 1 07.03.2027 -
Bryan Heynen Racing Genk Aktiv 123 / 124 40% 1 05.03.2027 -
Romelu Doku KV Oostende Aktiv 127 / 128 40% 1 04.03.2027 -
Youssouf Ndayishimiye Standard Liege Aktiv 140 / 147 40% 1 01.03.2027 -
Mike Eerdhuijzen KV Mechelen Aktiv 121 / 122 40% 1 01.03.2027 -
Thomas Claes Zulte Waregem Aktiv 113 / 117 40% 1 25.01.2027 -
Chris Lokesa Waasland-Beveren Aktiv 125 / 115 40% 1 25.01.2027 -
Thomas Amang Cotonsport Garoua Aktiv 109 / 104 40% 1 25.01.2027 -
Håkon Evjen Bodo/Glimt Aktiv 131 / 131 64% 1 11.01.2027 Befürworten
Kyriani Sabbe Club Brugge Aktiv 124 / 123 40% 1 11.01.2027 -
Sampson Dweh Lokomotiv Moscow Aktiv 133 / 134 66% 1 01.01.2027 Befürworten
Stanislav Agkatsev CSKA Moscow Aktiv 132 / 133 66% 1 01.01.2027 Befürworten
Mohamed Brahimi CSKA Sofia Aktiv 106 / 123 40% 1 31.12.2026 -
Josué Casimir AJ Auxerre Aktiv 138 / 135 40% 1 29.12.2026 -
Bill Antonio KV Mechelen Aktiv 121 / 126 40% 2 27.12.2026 -
Jesús Ricardo Angulo Toluca Aktiv 147 / 115 40% 1 27.12.2026 -
Ilias Sebaoui Sint-Truiden Aktiv 121 / 130 40% 3 25.12.2026 -
Sylvester Jasper Standard Liege Aktiv 110 / 115 40% 2 25.12.2026 -
Abdelkahar Kadri KAA Gent Aktiv 127 / 124 40% 1 22.12.2026 -
Daan Heymans Racing Genk Aktiv 124 / 126 40% 1 22.12.2026 -
Michy Courtois KV Oostende Aktiv 147 / 150 40% 4 21.12.2026 -
Paul Mercier Chamois Niortais Aktiv 128 / 120 40% 2 21.12.2026 -
William Balikwisha OH Leuven Aktiv 113 / 108 40% 1 21.12.2026 -
Aimé Omgba KAA Gent Aktiv 126 / 115 40% 2 17.12.2026 -
Ilan Kebbal Paris FC Aktiv 128 / 142 40% 1 17.12.2026 -
Jellert Van Landschoot KV Kortrijk Aktiv 122 / 129 40% 2 16.12.2026 -
Frédéric Charles Tours Aktiv 122 / 132 40% 1 14.12.2026 -
Boubacar Fofana Sochaux Aktiv 125 / 103 40% 2 12.12.2026 -
Nayel Mehssatou KV Kortrijk Aktiv 114 / 106 40% 1 12.12.2026 -
Aron Dønnum Toulouse FC Aktiv 130 / 126 40% 1 12.12.2026 -
Haissem Hassan Bloemfontein Celtic Aktiv 127 / 130 40% 3 09.12.2026 -
Luc François Tours Aktiv 159 / 163 40% 2 09.12.2026 -
Léo Scienza Southampton Aktiv 140 / 140 40% 1 07.12.2026 -
Ilyes Najim Waasland-Beveren Aktiv 118 / 105 40% 1 17.11.2026 -
Mamadou Diakhon Club Brugge Aktiv 118 / 129 40% 1 03.11.2026 -
Nicolas Guyot Mouscron Aktiv 121 / 117 40% 2 02.11.2026 -
Mazire Soula Levski Aktiv 120 / 127 40% 1 11.10.2026 -
Malick Mbaye Zulte Waregem Aktiv 115 / 108 40% 1 10.10.2026 -
Kévin Cabral Red Star Aktiv 119 / 118 40% 2 07.10.2026 -
Óscar Gil OH Leuven Aktiv 116 / 121 40% 1 06.10.2026 -
Henok Teklab OH Leuven Aktiv 126 / 127 40% 1 06.10.2026 -
Yann Karamoh Anderlecht Aktiv 129 / 119 40% 1 08.09.2026 -
Thibaud Verlinden OH Leuven Aktiv 117 / 134 40% 1 31.08.2026 -
Tristan Degreef Anderlecht Aktiv 124 / 133 40% 1 31.08.2026 -
Tiago Araújo KAA Gent Aktiv 112 / 124 40% 1 25.08.2026 -
Maximiliano Caufriez Sint-Truiden Aktiv 125 / 125 40% 1 18.08.2026 -
David Bates Standard Liege Aktiv 115 / 110 40% 1 18.08.2026 -
Marley Aké Zulte Waregem Aktiv 106 / 111 40% 1 01.08.2026 -